createdAt,value
2023-09-11T00:01:09.497Z,16.95
2023-09-11T00:03:44.091Z,16.89
2023-09-11T00:06:13.258Z,16.87
2023-09-11T00:08:42.373Z,16.90
2023-09-11T00:11:11.435Z,16.87
2023-09-11T00:13:40.397Z,16.85
2023-09-11T00:16:09.557Z,16.83
2023-09-11T00:18:39.155Z,16.83
2023-09-11T00:21:08.521Z,16.82
2023-09-11T00:23:37.390Z,16.82
2023-09-11T00:26:06.084Z,16.79
2023-09-11T00:28:34.744Z,16.80
2023-09-11T00:31:03.995Z,16.76
2023-09-11T00:33:32.912Z,16.76
2023-09-11T00:36:02.637Z,16.73
2023-09-11T00:38:31.556Z,16.73
2023-09-11T00:41:00.321Z,16.72
2023-09-11T00:43:32.307Z,16.72
2023-09-11T00:46:02.100Z,16.69
2023-09-11T00:48:31.116Z,16.68
2023-09-11T00:51:01.173Z,16.68
2023-09-11T00:53:30.743Z,16.63
2023-09-11T00:55:59.782Z,16.63
2023-09-11T00:58:28.637Z,16.58
2023-09-11T01:00:57.701Z,16.58
2023-09-11T01:03:27.990Z,16.58
2023-09-11T01:05:57.267Z,16.55
2023-09-11T01:08:26.188Z,16.52
2023-09-11T01:10:57.536Z,16.51
2023-09-11T01:13:26.400Z,16.49
2023-09-11T01:16:03.855Z,16.45
2023-09-11T01:18:43.169Z,16.45
2023-09-11T01:21:47.747Z,16.42
2023-09-11T01:24:41.832Z,16.41
2023-09-11T01:27:37.345Z,16.35
2023-09-11T01:30:08.021Z,16.31
2023-09-11T01:32:38.792Z,16.30
2023-09-11T01:35:08.745Z,16.27
2023-09-11T01:37:37.620Z,16.27
2023-09-11T01:40:09.238Z,16.23
2023-09-11T01:42:44.358Z,16.23
2023-09-11T01:45:15.549Z,16.20
2023-09-11T01:47:48.598Z,16.19
2023-09-11T01:50:19.896Z,16.16
2023-09-11T01:52:53.371Z,16.14
2023-09-11T01:55:22.431Z,16.12
2023-09-11T01:57:51.575Z,16.13
2023-09-11T02:00:20.341Z,16.09
2023-09-11T02:02:55.812Z,16.07
2023-09-11T02:05:25.280Z,16.06
2023-09-11T02:07:54.690Z,16.06
2023-09-11T02:10:23.672Z,16.04
2023-09-11T02:12:55.545Z,16.01
2023-09-11T02:15:24.665Z,16.00
2023-09-11T02:17:55.068Z,15.98
2023-09-11T02:20:24.018Z,15.96
2023-09-11T02:22:56.105Z,15.96
2023-09-11T02:25:25.030Z,15.94
2023-09-11T02:27:55.200Z,15.89
2023-09-11T02:30:24.109Z,15.89
2023-09-11T02:32:53.328Z,15.86
2023-09-11T02:35:22.395Z,15.85
2023-09-11T02:37:51.459Z,15.82
2023-09-11T02:40:20.430Z,15.83
2023-09-11T02:42:49.226Z,15.80
2023-09-11T02:45:18.283Z,15.80
2023-09-11T02:47:47.407Z,15.79
2023-09-11T02:50:16.808Z,15.76
2023-09-11T02:52:47.418Z,15.75
2023-09-11T02:55:16.518Z,15.73
2023-09-11T02:57:47.011Z,15.73
2023-09-11T03:00:16.429Z,15.72
2023-09-11T03:02:46.573Z,15.69
2023-09-11T03:05:15.821Z,15.70
2023-09-11T03:07:45.154Z,15.66
2023-09-11T03:10:14.226Z,15.66
2023-09-11T03:12:43.196Z,15.65
2023-09-11T03:15:15.313Z,15.61
2023-09-11T03:17:48.800Z,15.62
2023-09-11T03:20:18.154Z,15.59
2023-09-11T03:22:47.352Z,15.58
2023-09-11T03:25:17.041Z,15.57
2023-09-11T03:27:47.319Z,15.54
2023-09-11T03:30:16.905Z,15.54
2023-09-11T03:32:48.092Z,15.51
2023-09-11T03:35:17.167Z,15.51
2023-09-11T03:37:46.553Z,15.50
2023-09-11T03:40:15.800Z,15.50
2023-09-11T03:42:45.314Z,15.47
2023-09-11T03:45:15.626Z,15.45
2023-09-11T03:47:47.602Z,15.42
2023-09-11T03:50:16.549Z,15.41
2023-09-11T03:52:55.566Z,15.40
2023-09-11T03:55:24.956Z,15.38
2023-09-11T03:57:54.022Z,15.37
2023-09-11T04:00:23.090Z,15.34
2023-09-11T04:02:52.426Z,15.34
2023-09-11T04:05:21.506Z,15.33
2023-09-11T04:07:52.438Z,15.30
2023-09-11T04:10:21.960Z,15.31
2023-09-11T04:12:51.642Z,15.30
2023-09-11T04:15:20.660Z,15.29
2023-09-11T04:17:49.981Z,15.29
2023-09-11T04:20:19.786Z,15.29
2023-09-11T04:22:50.515Z,15.29
2023-09-11T04:25:21.517Z,15.29
2023-09-11T04:27:50.492Z,15.31
2023-09-11T04:30:21.233Z,15.30
2023-09-11T04:32:52.694Z,15.30
2023-09-11T04:35:24.136Z,15.33
2023-09-11T04:37:53.598Z,15.37
2023-09-11T04:40:23.140Z,15.37
2023-09-11T04:42:53.230Z,15.40
2023-09-11T04:45:22.260Z,15.42
2023-09-11T04:47:51.672Z,15.42
2023-09-11T04:50:20.852Z,15.44
2023-09-11T04:52:50.179Z,15.51
2023-09-11T04:55:19.728Z,15.54
2023-09-11T04:57:49.155Z,15.58
2023-09-11T05:00:19.784Z,15.64
2023-09-11T05:02:51.654Z,15.69
2023-09-11T05:05:20.610Z,15.73
2023-09-11T05:07:50.549Z,15.78
2023-09-11T05:10:19.687Z,15.83
2023-09-11T05:12:50.013Z,15.89
2023-09-11T05:15:21.980Z,16.07
2023-09-11T05:17:53.670Z,16.21
2023-09-11T05:20:22.615Z,16.38
2023-09-11T05:22:51.658Z,16.55
2023-09-11T05:25:21.703Z,16.78
2023-09-11T05:27:51.078Z,16.92
2023-09-11T05:30:21.777Z,16.96
2023-09-11T05:32:53.039Z,17.02
2023-09-11T05:35:22.690Z,17.07
2023-09-11T05:37:51.899Z,17.13
2023-09-11T05:40:21.034Z,17.18
2023-09-11T05:42:50.235Z,17.28
2023-09-11T05:45:19.730Z,17.32
2023-09-11T05:47:54.670Z,17.41
2023-09-11T05:50:23.702Z,17.46
2023-09-11T05:52:55.070Z,17.55
2023-09-11T05:55:23.851Z,17.62
2023-09-11T05:57:52.634Z,17.70
2023-09-11T06:00:21.741Z,17.73
2023-09-11T06:02:53.347Z,17.83
2023-09-11T06:05:25.886Z,17.90
2023-09-11T06:07:54.849Z,18.01
2023-09-11T06:10:24.017Z,18.07
2023-09-11T06:12:53.055Z,18.18
2023-09-11T06:15:21.973Z,18.29
2023-09-11T06:17:53.373Z,18.42
2023-09-11T06:20:22.619Z,18.55
2023-09-11T06:22:52.672Z,18.70
2023-09-11T06:25:21.864Z,18.79
2023-09-11T06:27:52.173Z,18.90
2023-09-11T06:30:21.497Z,19.10
2023-09-11T06:32:50.528Z,19.34
2023-09-11T06:35:19.890Z,19.81
2023-09-11T06:37:51.807Z,20.89
2023-09-11T06:40:20.801Z,22.03
2023-09-11T06:42:49.724Z,23.00
2023-09-11T06:45:18.787Z,23.83
2023-09-11T06:47:50.531Z,24.65
2023-09-11T06:50:21.252Z,25.92
2023-09-11T06:52:50.320Z,27.06
2023-09-11T06:55:19.542Z,27.51
2023-09-11T06:57:57.933Z,27.72
2023-09-11T07:00:27.614Z,27.72
2023-09-11T07:02:56.885Z,27.56
2023-09-11T07:05:27.594Z,27.25
2023-09-11T07:07:56.532Z,26.89
2023-09-11T07:10:38.136Z,26.54
2023-09-11T07:13:11.107Z,26.00
2023-09-11T07:15:40.130Z,25.49
2023-09-11T07:18:09.842Z,25.10
2023-09-11T07:20:38.879Z,24.80
2023-09-11T07:23:08.231Z,24.62
2023-09-11T07:25:37.193Z,24.79
2023-09-11T07:28:13.738Z,25.20
2023-09-11T07:30:43.520Z,25.59
2023-09-11T07:33:12.696Z,25.70
2023-09-11T07:35:41.607Z,25.59
2023-09-11T07:38:12.835Z,25.35
2023-09-11T07:40:42.153Z,25.10
2023-09-11T07:43:11.860Z,24.96
2023-09-11T07:45:40.897Z,24.86
2023-09-11T07:48:09.974Z,24.77
2023-09-11T07:50:39.059Z,24.67
2023-09-11T07:53:08.419Z,24.65
2023-09-11T07:55:38.620Z,24.76
2023-09-11T07:58:10.134Z,25.15
2023-09-11T08:00:38.997Z,25.56
2023-09-11T08:03:08.275Z,26.21
2023-09-11T08:05:37.439Z,26.83
2023-09-11T08:08:07.353Z,27.34
2023-09-11T08:10:36.379Z,27.83
2023-09-11T08:13:05.689Z,27.96
2023-09-11T08:15:34.925Z,28.11
2023-09-11T08:18:07.308Z,28.20
2023-09-11T08:20:36.088Z,28.68
2023-09-11T08:23:05.448Z,29.72
2023-09-11T08:25:35.066Z,30.62
2023-09-11T08:28:07.663Z,31.40
2023-09-11T08:30:37.542Z,31.97
2023-09-11T08:33:15.490Z,32.81
2023-09-11T08:35:45.033Z,33.58
2023-09-11T08:38:13.805Z,34.55
2023-09-11T08:40:44.112Z,35.39
2023-09-11T08:43:12.903Z,36.33
2023-09-11T08:45:42.467Z,37.14
2023-09-11T08:48:16.327Z,37.84
2023-09-11T08:50:49.375Z,38.38
2023-09-11T08:53:20.157Z,38.90
2023-09-11T08:55:50.221Z,39.27
2023-09-11T08:58:22.636Z,39.62
2023-09-11T09:00:51.781Z,39.85
2023-09-11T09:03:21.782Z,40.17
2023-09-11T09:05:51.339Z,40.03
2023-09-11T09:08:21.216Z,39.89
2023-09-11T09:10:50.665Z,39.72
2023-09-11T09:13:20.823Z,39.62
2023-09-11T09:15:49.776Z,39.51
2023-09-11T09:18:18.953Z,39.34
2023-09-11T09:20:48.243Z,39.32
2023-09-11T09:23:18.264Z,39.31
2023-09-11T09:25:47.060Z,39.09
2023-09-11T09:28:31.076Z,38.87
2023-09-11T09:31:04.054Z,38.38
2023-09-11T09:33:34.445Z,37.62
2023-09-11T09:36:04.032Z,36.93
2023-09-11T09:38:34.126Z,36.35
2023-09-11T09:41:11.097Z,35.89
2023-09-11T09:43:40.111Z,35.40
2023-09-11T09:46:20.608Z,34.94
2023-09-11T09:48:49.667Z,34.65
2023-09-11T09:51:19.229Z,34.49
2023-09-11T09:53:52.814Z,34.36
2023-09-11T09:56:21.933Z,34.09
2023-09-11T09:58:51.995Z,33.89
2023-09-11T10:01:21.898Z,33.85
2023-09-11T10:03:52.631Z,33.91
2023-09-11T10:06:27.519Z,34.03
2023-09-11T10:09:07.413Z,34.09
2023-09-11T10:11:37.477Z,34.23
2023-09-11T10:14:08.588Z,34.35
2023-09-11T10:16:38.305Z,34.32
2023-09-11T10:19:07.632Z,34.16
2023-09-11T10:21:36.812Z,34.08
2023-09-11T10:24:09.422Z,34.02
2023-09-11T10:26:41.577Z,34.08
2023-09-11T10:29:17.041Z,33.96
2023-09-11T10:31:53.817Z,33.88
2023-09-11T10:34:24.559Z,33.85
2023-09-11T10:36:59.677Z,33.84
2023-09-11T10:39:28.739Z,33.85
2023-09-11T10:41:57.656Z,33.91
2023-09-11T10:44:29.696Z,33.88
2023-09-11T10:47:05.440Z,33.89
2023-09-11T10:49:38.892Z,33.95
2023-09-11T10:52:09.487Z,33.98
2023-09-11T10:54:38.565Z,34.02
2023-09-11T10:57:07.947Z,34.01
2023-09-11T10:59:37.164Z,34.01
2023-09-11T11:02:06.841Z,33.92
2023-09-11T11:04:36.374Z,33.84
2023-09-11T11:07:08.925Z,33.74
2023-09-11T11:09:42.169Z,33.67
2023-09-11T11:12:15.813Z,33.65
2023-09-11T11:15:13.401Z,33.65
2023-09-11T11:17:43.045Z,33.69
2023-09-11T11:20:12.750Z,33.61
2023-09-11T11:22:42.691Z,33.48
2023-09-11T11:25:13.045Z,33.43
2023-09-11T11:27:43.035Z,33.37
2023-09-11T11:30:13.429Z,33.34
2023-09-11T11:32:43.097Z,33.27
2023-09-11T11:35:16.458Z,33.23
2023-09-11T11:37:50.587Z,33.21
2023-09-11T11:40:21.998Z,33.23
2023-09-11T11:42:52.442Z,33.19
2023-09-11T11:45:21.871Z,33.06
2023-09-11T11:47:52.665Z,33.02
2023-09-11T11:50:22.083Z,32.90
2023-09-11T11:52:51.861Z,32.86
2023-09-11T11:55:24.979Z,32.75
2023-09-11T11:57:55.146Z,32.62
2023-09-11T12:00:24.241Z,32.50
2023-09-11T12:03:03.887Z,32.51
2023-09-11T12:05:33.384Z,32.48
2023-09-11T12:08:04.464Z,32.42
2023-09-11T12:10:33.797Z,32.42
2023-09-11T12:13:03.654Z,32.40
2023-09-11T12:15:32.912Z,32.38
2023-09-11T12:18:04.176Z,32.35
2023-09-11T12:20:33.814Z,32.27
2023-09-11T12:23:04.355Z,32.17
2023-09-11T12:25:33.493Z,32.06
2023-09-11T12:28:04.953Z,31.96
2023-09-11T12:30:34.464Z,31.89
2023-09-11T12:33:07.434Z,31.79
2023-09-11T12:35:35.829Z,31.73
2023-09-11T12:38:09.914Z,31.64
2023-09-11T12:40:39.661Z,31.57
2023-09-11T12:43:11.679Z,31.53
2023-09-11T12:45:41.112Z,31.49
2023-09-11T12:48:10.934Z,31.44
2023-09-11T12:50:42.298Z,31.40
2023-09-11T12:53:12.191Z,31.33
2023-09-11T12:55:41.408Z,31.23
2023-09-11T12:58:10.846Z,31.18
2023-09-11T13:12:47.011Z,30.96
2023-09-11T13:15:16.883Z,30.89
2023-09-11T13:17:47.242Z,30.82
2023-09-11T13:20:16.512Z,30.73
2023-09-11T13:22:46.077Z,30.68
2023-09-11T13:25:16.116Z,30.63
2023-09-11T13:27:45.432Z,30.54
2023-09-11T13:30:15.140Z,30.38
2023-09-11T13:32:46.736Z,30.28
2023-09-11T13:35:16.617Z,30.23
2023-09-11T13:37:45.857Z,30.16
2023-09-11T13:40:15.236Z,30.13
2023-09-11T13:42:49.533Z,30.08
2023-09-11T13:45:19.873Z,30.08
2023-09-11T13:47:50.088Z,30.08
2023-09-11T13:50:19.418Z,30.06
2023-09-11T13:52:48.853Z,29.99
2023-09-11T13:55:17.873Z,29.96
2023-09-11T13:57:48.372Z,29.90
2023-09-11T14:00:19.799Z,29.86
2023-09-11T14:02:49.203Z,29.77
2023-09-11T14:05:19.796Z,29.72
2023-09-11T14:07:50.534Z,29.68
2023-09-11T14:10:19.646Z,29.61
2023-09-11T14:12:48.880Z,29.62
2023-09-11T14:15:21.038Z,29.56
2023-09-11T14:17:50.524Z,29.51
2023-09-11T14:20:19.840Z,29.45
2023-09-11T14:22:51.267Z,29.34
2023-09-11T14:25:20.071Z,29.20
2023-09-11T14:27:49.283Z,29.11
2023-09-11T14:30:18.711Z,29.03
2023-09-11T14:32:50.915Z,29.01
2023-09-11T14:35:20.775Z,29.00
2023-09-11T14:37:50.052Z,29.00
2023-09-11T14:40:19.167Z,29.03
2023-09-11T14:42:49.052Z,29.01
2023-09-11T14:45:18.215Z,29.03
2023-09-11T14:47:49.059Z,29.00
2023-09-11T14:50:18.464Z,29.01
2023-09-11T14:52:50.824Z,29.03
2023-09-11T14:55:23.441Z,29.01
2023-09-11T14:57:54.109Z,29.00
2023-09-11T15:00:23.462Z,28.96
2023-09-11T15:02:54.393Z,28.91
2023-09-11T15:05:23.842Z,28.89
2023-09-11T15:07:56.767Z,28.85
2023-09-11T15:10:25.772Z,28.80
2023-09-11T15:12:54.731Z,28.72
2023-09-11T15:15:23.933Z,28.65
2023-09-11T15:17:53.058Z,28.59
2023-09-11T15:20:21.910Z,28.54
2023-09-11T15:22:50.787Z,28.46
2023-09-11T15:25:19.826Z,28.39
2023-09-11T15:27:50.900Z,28.31
2023-09-11T15:30:23.166Z,28.24
2023-09-11T15:32:52.289Z,28.17
2023-09-11T15:35:21.241Z,28.14
2023-09-11T15:37:50.062Z,28.07
2023-09-11T15:40:18.751Z,27.97
2023-09-11T15:42:52.025Z,27.91
2023-09-11T15:45:21.259Z,27.84
2023-09-11T15:47:50.493Z,27.80
2023-09-11T15:50:20.691Z,27.72
2023-09-11T15:52:49.869Z,27.66
2023-09-11T15:55:18.570Z,27.56
2023-09-11T15:57:54.709Z,27.46
2023-09-11T16:00:25.588Z,27.40
2023-09-11T16:02:54.896Z,27.28
2023-09-11T16:05:23.873Z,27.18
2023-09-11T16:07:52.804Z,27.06
2023-09-11T16:10:21.958Z,26.92
2023-09-11T16:12:50.921Z,26.79
2023-09-11T16:15:20.344Z,26.67
2023-09-11T16:17:49.910Z,26.54
2023-09-11T16:20:18.805Z,26.39
2023-09-11T16:22:50.783Z,26.24
2023-09-11T16:25:22.539Z,26.11
2023-09-11T16:27:51.355Z,25.94
2023-09-11T16:30:22.261Z,25.76
2023-09-11T16:32:53.216Z,25.64
2023-09-11T16:35:22.713Z,25.48
2023-09-11T16:37:51.756Z,25.31
2023-09-11T16:40:20.998Z,25.17
2023-09-11T16:42:52.691Z,25.03
2023-09-11T16:45:21.801Z,24.87
2023-09-11T16:47:50.895Z,24.73
2023-09-11T16:50:22.080Z,24.60
2023-09-11T16:52:50.902Z,24.44
2023-09-11T16:55:20.166Z,24.32
2023-09-11T16:57:49.262Z,24.15
2023-09-11T17:00:21.343Z,24.05
2023-09-11T17:02:53.495Z,23.90
2023-09-11T17:05:22.464Z,23.80
2023-09-11T17:07:51.363Z,23.67
2023-09-11T17:10:20.569Z,23.53
2023-09-11T17:12:52.915Z,23.42
2023-09-11T17:15:22.012Z,23.30
2023-09-11T17:17:50.993Z,23.21
2023-09-11T17:20:21.704Z,23.07
2023-09-11T17:22:52.730Z,22.95
2023-09-11T17:25:22.984Z,22.84
2023-09-11T17:27:52.200Z,22.73
2023-09-11T17:30:21.184Z,22.60
2023-09-11T17:32:50.110Z,22.52
2023-09-11T17:35:20.106Z,22.42
2023-09-11T17:37:51.810Z,22.34
2023-09-11T17:40:20.689Z,22.24
2023-09-11T17:42:49.938Z,22.15
2023-09-11T17:45:19.280Z,22.04
2023-09-11T17:47:49.939Z,21.99
2023-09-11T17:50:18.892Z,21.89
2023-09-11T17:52:53.696Z,21.84
2023-09-11T17:55:22.683Z,21.76
2023-09-11T17:57:51.962Z,21.69
2023-09-11T18:00:22.407Z,21.62
2023-09-11T18:02:51.721Z,21.53
2023-09-11T18:05:22.574Z,21.45
2023-09-11T18:07:51.687Z,21.39
2023-09-11T18:10:20.880Z,21.31
2023-09-11T18:12:49.957Z,21.27
2023-09-11T18:15:18.914Z,21.19
2023-09-11T18:17:48.109Z,21.14
2023-09-11T18:20:18.198Z,21.08
2023-09-11T18:22:50.209Z,21.01
2023-09-11T18:25:21.071Z,20.96
2023-09-11T18:27:50.186Z,20.90
2023-09-11T18:30:19.776Z,20.83
2023-09-11T18:32:52.721Z,20.77
2023-09-11T18:35:21.785Z,20.75
2023-09-11T18:37:53.985Z,20.68
2023-09-11T18:40:23.079Z,20.62
2023-09-11T18:42:54.570Z,20.56
2023-09-11T18:45:29.025Z,20.51
2023-09-11T18:47:58.178Z,20.43
2023-09-11T18:50:27.486Z,20.39
2023-09-11T18:52:59.379Z,20.32
2023-09-11T18:55:31.777Z,20.31
2023-09-11T18:58:00.725Z,20.24
2023-09-11T19:00:32.583Z,20.21
2023-09-11T19:03:11.401Z,20.17
2023-09-11T19:05:40.898Z,20.15
2023-09-11T19:08:13.545Z,20.08
2023-09-11T19:10:43.219Z,20.05
2023-09-11T19:13:12.256Z,20.01
2023-09-11T19:15:41.758Z,19.96
2023-09-11T19:18:10.644Z,19.91
2023-09-11T19:20:40.064Z,19.88
2023-09-11T19:23:09.917Z,19.84
2023-09-11T19:25:39.439Z,19.81
2023-09-11T19:28:09.245Z,19.77
2023-09-11T19:30:38.788Z,19.73
2023-09-11T19:33:08.588Z,19.68
2023-09-11T19:35:38.449Z,19.65
2023-09-11T19:38:08.141Z,19.59
2023-09-11T19:40:38.626Z,19.53
2023-09-11T19:43:07.974Z,19.49
2023-09-11T19:45:37.431Z,19.45
2023-09-11T19:48:10.587Z,19.41
2023-09-11T19:50:39.878Z,19.38
2023-09-11T19:53:11.897Z,19.32
2023-09-11T19:55:41.613Z,19.28
2023-09-11T19:58:10.649Z,19.23
2023-09-11T20:00:43.075Z,19.15
2023-09-11T20:03:14.444Z,19.10
2023-09-11T20:05:44.169Z,19.04
2023-09-11T20:08:17.210Z,19.01
2023-09-11T20:10:45.977Z,18.97
2023-09-11T20:13:14.881Z,18.91
2023-09-11T20:15:43.737Z,18.88
2023-09-11T20:18:12.803Z,18.83
2023-09-11T20:20:42.956Z,18.80
2023-09-11T20:23:12.433Z,18.75
2023-09-11T20:25:41.271Z,18.70
2023-09-11T20:28:10.265Z,18.68
2023-09-11T20:30:39.078Z,18.65
2023-09-11T20:33:11.423Z,18.60
2023-09-11T20:35:43.770Z,18.59
2023-09-11T20:38:13.037Z,18.54
2023-09-11T20:40:42.751Z,18.51
2023-09-11T20:43:11.692Z,18.47
2023-09-11T20:45:43.271Z,18.45
2023-09-11T20:48:12.286Z,18.42
2023-09-11T20:50:41.804Z,18.38
2023-09-11T20:53:15.789Z,18.35
2023-09-11T20:55:48.711Z,18.34
2023-09-11T20:58:25.352Z,18.29
2023-09-11T21:00:54.329Z,18.28
2023-09-11T21:03:27.591Z,18.25
2023-09-11T21:05:57.208Z,18.24
2023-09-11T21:08:26.446Z,18.18
2023-09-11T21:10:56.071Z,18.17
2023-09-11T21:13:26.585Z,18.11
2023-09-11T21:15:56.821Z,18.10
2023-09-11T21:18:26.459Z,18.07
2023-09-11T21:20:55.756Z,18.01
2023-09-11T21:23:26.080Z,17.93
2023-09-11T21:25:56.712Z,17.92
2023-09-11T21:28:31.391Z,17.89
2023-09-11T21:31:00.400Z,17.86
2023-09-11T21:33:32.252Z,17.82
2023-09-11T21:36:01.348Z,17.80
2023-09-11T21:38:30.720Z,17.76
2023-09-11T21:40:59.713Z,17.72
2023-09-11T21:43:28.714Z,17.72
2023-09-11T21:45:57.649Z,17.65
2023-09-11T21:48:26.452Z,17.64
2023-09-11T21:50:55.828Z,17.64
2023-09-11T21:53:27.246Z,17.64
2023-09-11T21:55:58.273Z,17.61
2023-09-11T21:58:27.250Z,17.58
2023-09-11T22:00:56.097Z,17.56
2023-09-11T22:03:26.135Z,17.56
2023-09-11T22:05:55.027Z,17.53
2023-09-11T22:08:26.786Z,17.51
2023-09-11T22:10:59.970Z,17.51
2023-09-11T22:13:29.471Z,17.51
2023-09-11T22:15:58.582Z,17.46
2023-09-11T22:18:27.637Z,17.45
2023-09-11T22:20:57.454Z,17.46
2023-09-11T22:23:26.366Z,17.43
2023-09-11T22:25:55.625Z,17.42
2023-09-11T22:28:24.399Z,17.42
2023-09-11T22:30:53.202Z,17.39
2023-09-11T22:33:22.496Z,17.35
2023-09-11T22:35:54.456Z,17.34
2023-09-11T22:38:23.674Z,17.27
2023-09-11T22:40:53.298Z,17.25
2023-09-11T22:43:22.139Z,17.23
2023-09-11T22:45:50.963Z,17.18
2023-09-11T22:48:19.846Z,17.20
2023-09-11T22:50:48.727Z,17.17
2023-09-11T22:53:17.560Z,17.17
2023-09-11T22:55:46.308Z,17.15
2023-09-11T22:58:15.289Z,17.14
2023-09-11T23:00:44.190Z,17.11
2023-09-11T23:03:13.350Z,17.14
2023-09-11T23:05:42.269Z,17.11
2023-09-11T23:08:13.326Z,17.11
2023-09-11T23:10:42.268Z,17.13
2023-09-11T23:13:11.112Z,17.14
2023-09-11T23:15:40.257Z,17.13
2023-09-11T23:18:09.769Z,17.11
2023-09-11T23:20:38.928Z,17.14
2023-09-11T23:23:07.739Z,17.14
2023-09-11T23:25:36.863Z,17.14
2023-09-11T23:28:06.904Z,17.13
2023-09-11T23:30:37.433Z,17.11
2023-09-11T23:33:07.494Z,17.03
2023-09-11T23:35:39.580Z,17.00
2023-09-11T23:38:08.583Z,16.99
2023-09-11T23:40:37.892Z,16.95
2023-09-11T23:43:09.275Z,16.92
2023-09-11T23:45:38.065Z,16.89
2023-09-11T23:48:10.308Z,16.85
2023-09-11T23:50:46.521Z,16.83
2023-09-11T23:53:14.792Z,16.82
2023-09-11T23:55:43.630Z,16.78
2023-09-11T23:58:15.424Z,16.76
